sensor_id;sensor_type;location;lat;lon;timestamp;P1;durP1;ratioP1;P2;durP2;ratioP2
34988;SDS011;21192;40.182;44.516;2024-01-15T00:02:13;24.77;;;13.85;;
34988;SDS011;21192;40.182;44.516;2024-01-15T00:04:40;24.60;;;13.55;;
34988;SDS011;21192;40.182;44.516;2024-01-15T00:07:06;26.83;;;13.43;;
34988;SDS011;21192;40.182;44.516;2024-01-15T00:09:32;22.60;;;14.20;;
34988;SDS011;21192;40.182;44.516;2024-01-15T00:11:59;23.65;;;13.55;;
34988;SDS011;21192;40.182;44.516;2024-01-15T00:14:25;24.70;;;14.38;;
34988;SDS011;21192;40.182;44.516;2024-01-15T00:16:51;23.17;;;14.20;;
34988;SDS011;21192;40.182;44.516;2024-01-15T00:19:20;22.50;;;14.45;;
34988;SDS011;21192;40.182;44.516;2024-01-15T00:21:46;23.95;;;14.60;;
34988;SDS011;21192;40.182;44.516;2024-01-15T00:24:12;24.27;;;13.70;;
34988;SDS011;21192;40.182;44.516;2024-01-15T00:26:38;23.30;;;14.35;;
34988;SDS011;21192;40.182;44.516;2024-01-15T00:29:06;22.17;;;13.68;;
34988;SDS011;21192;40.182;44.516;2024-01-15T00:31:32;27.65;;;13.70;;
34988;SDS011;21192;40.182;44.516;2024-01-15T00:33:59;23.02;;;13.25;;
34988;SDS011;21192;40.182;44.516;2024-01-15T00:36:24;22.75;;;13.38;;
34988;SDS011;21192;40.182;44.516;2024-01-15T00:38:51;24.20;;;13.05;;
34988;SDS011;21192;40.182;44.516;2024-01-15T00:41:17;20.00;;;12.80;;
34988;SDS011;21192;40.182;44.516;2024-01-15T00:43:44;20.35;;;12.65;;
34988;SDS011;21192;40.182;44.516;2024-01-15T00:46:16;22.60;;;13.57;;
34988;SDS011;21192;40.182;44.516;2024-01-15T00:48:42;23.00;;;12.88;;
34988;SDS011;21192;40.182;44.516;2024-01-15T00:51:08;21.95;;;13.05;;
34988;SDS011;21192;40.182;44.516;2024-01-15T00:53:34;21.02;;;11.80;;
34988;SDS011;21192;40.182;44.516;2024-01-15T00:56:00;23.98;;;13.43;;
34988;SDS011;21192;40.182;44.516;2024-01-15T00:58:26;20.73;;;12.77;;
34988;SDS011;21192;40.182;44.516;2024-01-15T01:00:52;21.48;;;13.00;;
34988;SDS011;21192;40.182;44.516;2024-01-15T01:03:18;23.33;;;13.98;;
34988;SDS011;21192;40.182;44.516;2024-01-15T01:05:44;28.20;;;14.75;;
34988;SDS011;21192;40.182;44.516;2024-01-15T01:08:10;26.40;;;15.52;;
34988;SDS011;21192;40.182;44.516;2024-01-15T01:10:36;22.50;;;14.05;;
34988;SDS011;21192;40.182;44.516;2024-01-15T01:13:02;25.17;;;15.07;;
34988;SDS011;21192;40.182;44.516;2024-01-15T01:15:28;24.10;;;15.30;;
34988;SDS011;21192;40.182;44.516;2024-01-15T01:17:54;26.67;;;16.48;;
34988;SDS011;21192;40.182;44.516;2024-01-15T01:20:20;28.52;;;16.13;;
34988;SDS011;21192;40.182;44.516;2024-01-15T01:22:46;29.48;;;16.63;;
34988;SDS011;21192;40.182;44.516;2024-01-15T01:25:12;27.73;;;16.65;;
34988;SDS011;21192;40.182;44.516;2024-01-15T01:27:38;32.58;;;17.25;;
34988;SDS011;21192;40.182;44.516;2024-01-15T01:30:04;28.67;;;17.10;;
34988;SDS011;21192;40.182;44.516;2024-01-15T01:32:32;27.73;;;16.50;;
34988;SDS011;21192;40.182;44.516;2024-01-15T01:34:58;27.67;;;17.73;;
34988;SDS011;21192;40.182;44.516;2024-01-15T01:37:24;25.25;;;16.55;;
34988;SDS011;21192;40.182;44.516;2024-01-15T01:39:50;26.08;;;16.70;;
34988;SDS011;21192;40.182;44.516;2024-01-15T01:42:16;26.85;;;15.45;;
34988;SDS011;21192;40.182;44.516;2024-01-15T01:44:42;25.05;;;14.90;;
34988;SDS011;21192;40.182;44.516;2024-01-15T01:47:07;21.67;;;13.45;;
34988;SDS011;21192;40.182;44.516;2024-01-15T01:49:34;24.17;;;12.32;;
34988;SDS011;21192;40.182;44.516;2024-01-15T01:52:02;17.98;;;11.52;;
34988;SDS011;21192;40.182;44.516;2024-01-15T01:54:31;21.70;;;12.68;;
34988;SDS011;21192;40.182;44.516;2024-01-15T01:56:58;21.48;;;12.45;;
34988;SDS011;21192;40.182;44.516;2024-01-15T01:59:25;19.33;;;11.18;;
34988;SDS011;21192;40.182;44.516;2024-01-15T02:01:54;18.75;;;11.90;;
34988;SDS011;21192;40.182;44.516;2024-01-15T02:04:20;20.38;;;11.73;;
34988;SDS011;21192;40.182;44.516;2024-01-15T02:06:49;22.40;;;11.70;;
34988;SDS011;21192;40.182;44.516;2024-01-15T02:09:15;18.52;;;10.23;;
34988;SDS011;21192;40.182;44.516;2024-01-15T02:11:43;18.52;;;10.32;;
34988;SDS011;21192;40.182;44.516;2024-01-15T02:14:09;23.27;;;11.25;;
34988;SDS011;21192;40.182;44.516;2024-01-15T02:16:35;18.92;;;10.15;;
34988;SDS011;21192;40.182;44.516;2024-01-15T02:19:01;19.60;;;10.07;;
34988;SDS011;21192;40.182;44.516;2024-01-15T02:21:27;19.02;;;10.38;;
34988;SDS011;21192;40.182;44.516;2024-01-15T02:23:54;19.48;;;9.82;;
34988;SDS011;21192;40.182;44.516;2024-01-15T02:26:21;20.75;;;11.02;;
34988;SDS011;21192;40.182;44.516;2024-01-15T02:28:47;17.77;;;10.65;;
34988;SDS011;21192;40.182;44.516;2024-01-15T02:31:13;18.33;;;10.27;;
34988;SDS011;21192;40.182;44.516;2024-01-15T02:33:39;17.85;;;9.38;;
34988;SDS011;21192;40.182;44.516;2024-01-15T02:36:07;18.73;;;10.70;;
34988;SDS011;21192;40.182;44.516;2024-01-15T02:38:33;18.77;;;10.40;;
34988;SDS011;21192;40.182;44.516;2024-01-15T02:40:59;19.38;;;10.98;;
34988;SDS011;21192;40.182;44.516;2024-01-15T02:43:24;20.10;;;11.10;;
34988;SDS011;21192;40.182;44.516;2024-01-15T02:45:50;21.15;;;11.95;;
34988;SDS011;21192;40.182;44.516;2024-01-15T02:48:16;21.35;;;12.02;;
34988;SDS011;21192;40.182;44.516;2024-01-15T02:50:42;21.38;;;12.68;;
34988;SDS011;21192;40.182;44.516;2024-01-15T02:53:08;18.80;;;10.90;;
34988;SDS011;21192;40.182;44.516;2024-01-15T02:55:34;22.17;;;12.43;;
34988;SDS011;21192;40.182;44.516;2024-01-15T02:58:00;18.77;;;11.70;;
34988;SDS011;21192;40.182;44.516;2024-01-15T03:00:26;17.48;;;10.85;;
34988;SDS011;21192;40.182;44.516;2024-01-15T03:02:51;19.23;;;10.88;;
34988;SDS011;21192;40.182;44.516;2024-01-15T03:05:17;19.00;;;11.55;;
34988;SDS011;21192;40.182;44.516;2024-01-15T03:07:43;24.15;;;11.52;;
34988;SDS011;21192;40.182;44.516;2024-01-15T03:10:09;19.98;;;11.75;;
34988;SDS011;21192;40.182;44.516;2024-01-15T03:12:35;18.25;;;11.30;;
34988;SDS011;21192;40.182;44.516;2024-01-15T03:15:01;19.63;;;10.57;;
34988;SDS011;21192;40.182;44.516;2024-01-15T03:17:27;21.05;;;12.75;;
34988;SDS011;21192;40.182;44.516;2024-01-15T03:19:53;24.13;;;13.70;;
34988;SDS011;21192;40.182;44.516;2024-01-15T03:22:19;22.23;;;13.07;;
34988;SDS011;21192;40.182;44.516;2024-01-15T03:24:45;25.70;;;12.60;;
34988;SDS011;21192;40.182;44.516;2024-01-15T03:27:11;21.80;;;12.52;;
34988;SDS011;21192;40.182;44.516;2024-01-15T03:29:37;21.63;;;13.23;;
34988;SDS011;21192;40.182;44.516;2024-01-15T03:32:02;24.73;;;15.10;;
34988;SDS011;21192;40.182;44.516;2024-01-15T03:34:29;23.20;;;14.65;;
34988;SDS011;21192;40.182;44.516;2024-01-15T03:36:54;27.08;;;13.27;;
34988;SDS011;21192;40.182;44.516;2024-01-15T03:39:20;23.98;;;12.80;;
34988;SDS011;21192;40.182;44.516;2024-01-15T03:41:46;17.60;;;11.05;;
34988;SDS011;21192;40.182;44.516;2024-01-15T03:44:12;19.52;;;11.63;;
34988;SDS011;21192;40.182;44.516;2024-01-15T03:46:38;22.23;;;12.07;;
34988;SDS011;21192;40.182;44.516;2024-01-15T03:49:04;17.90;;;11.68;;
34988;SDS011;21192;40.182;44.516;2024-01-15T03:51:30;23.00;;;12.23;;
34988;SDS011;21192;40.182;44.516;2024-01-15T03:53:55;21.73;;;11.40;;
34988;SDS011;21192;40.182;44.516;2024-01-15T03:56:21;28.65;;;12.88;;
34988;SDS011;21192;40.182;44.516;2024-01-15T03:58:47;20.90;;;10.82;;
34988;SDS011;21192;40.182;44.516;2024-01-15T04:01:13;18.70;;;11.13;;
34988;SDS011;21192;40.182;44.516;2024-01-15T04:03:39;20.27;;;11.10;;
34988;SDS011;21192;40.182;44.516;2024-01-15T04:06:05;18.98;;;11.57;;
34988;SDS011;21192;40.182;44.516;2024-01-15T04:08:31;25.08;;;12.20;;
34988;SDS011;21192;40.182;44.516;2024-01-15T04:10:57;20.35;;;11.77;;
34988;SDS011;21192;40.182;44.516;2024-01-15T04:13:23;26.55;;;11.68;;
34988;SDS011;21192;40.182;44.516;2024-01-15T04:15:49;23.23;;;12.30;;
34988;SDS011;21192;40.182;44.516;2024-01-15T04:18:15;23.33;;;12.48;;
34988;SDS011;21192;40.182;44.516;2024-01-15T04:20:41;25.00;;;12.35;;
34988;SDS011;21192;40.182;44.516;2024-01-15T04:23:07;25.48;;;12.93;;
34988;SDS011;21192;40.182;44.516;2024-01-15T04:25:33;23.05;;;13.38;;
34988;SDS011;21192;40.182;44.516;2024-01-15T04:27:59;19.80;;;12.20;;
34988;SDS011;21192;40.182;44.516;2024-01-15T04:30:25;21.95;;;13.57;;
34988;SDS011;21192;40.182;44.516;2024-01-15T04:32:51;26.00;;;14.48;;
34988;SDS011;21192;40.182;44.516;2024-01-15T04:35:16;25.90;;;14.15;;
34988;SDS011;21192;40.182;44.516;2024-01-15T04:37:42;26.00;;;14.10;;
34988;SDS011;21192;40.182;44.516;2024-01-15T04:40:08;28.30;;;14.95;;
34988;SDS011;21192;40.182;44.516;2024-01-15T04:42:35;24.70;;;14.57;;
34988;SDS011;21192;40.182;44.516;2024-01-15T04:45:00;26.38;;;15.23;;
34988;SDS011;21192;40.182;44.516;2024-01-15T04:47:26;26.02;;;15.60;;
34988;SDS011;21192;40.182;44.516;2024-01-15T04:49:52;28.83;;;16.73;;
34988;SDS011;21192;40.182;44.516;2024-01-15T04:52:18;28.05;;;16.38;;
34988;SDS011;21192;40.182;44.516;2024-01-15T04:54:44;29.25;;;17.48;;
34988;SDS011;21192;40.182;44.516;2024-01-15T04:57:10;27.55;;;18.33;;
34988;SDS011;21192;40.182;44.516;2024-01-15T04:59:35;29.20;;;18.52;;
34988;SDS011;21192;40.182;44.516;2024-01-15T05:02:01;29.27;;;17.35;;
34988;SDS011;21192;40.182;44.516;2024-01-15T05:04:27;31.08;;;16.88;;
34988;SDS011;21192;40.182;44.516;2024-01-15T05:06:53;28.20;;;17.75;;
34988;SDS011;21192;40.182;44.516;2024-01-15T05:09:20;37.90;;;26.38;;
34988;SDS011;21192;40.182;44.516;2024-01-15T05:11:46;32.58;;;19.13;;
34988;SDS011;21192;40.182;44.516;2024-01-15T05:14:12;39.40;;;18.95;;
34988;SDS011;21192;40.182;44.516;2024-01-15T05:16:38;35.08;;;19.52;;
34988;SDS011;21192;40.182;44.516;2024-01-15T05:19:06;42.58;;;20.08;;
34988;SDS011;21192;40.182;44.516;2024-01-15T05:21:32;33.97;;;17.90;;
34988;SDS011;21192;40.182;44.516;2024-01-15T05:23:58;43.92;;;19.40;;
34988;SDS011;21192;40.182;44.516;2024-01-15T05:26:24;36.72;;;17.67;;
34988;SDS011;21192;40.182;44.516;2024-01-15T05:28:50;44.95;;;19.00;;
34988;SDS011;21192;40.182;44.516;2024-01-15T05:31:16;47.47;;;19.98;;
34988;SDS011;21192;40.182;44.516;2024-01-15T05:33:41;38.45;;;19.60;;
34988;SDS011;21192;40.182;44.516;2024-01-15T05:36:07;43.55;;;22.00;;
34988;SDS011;21192;40.182;44.516;2024-01-15T05:38:33;40.45;;;21.27;;
34988;SDS011;21192;40.182;44.516;2024-01-15T05:40:59;49.25;;;21.88;;
34988;SDS011;21192;40.182;44.516;2024-01-15T05:43:25;47.25;;;22.77;;
34988;SDS011;21192;40.182;44.516;2024-01-15T05:45:51;46.40;;;23.58;;
34988;SDS011;21192;40.182;44.516;2024-01-15T05:48:17;50.05;;;25.23;;
34988;SDS011;21192;40.182;44.516;2024-01-15T05:50:42;44.15;;;23.95;;
34988;SDS011;21192;40.182;44.516;2024-01-15T05:53:08;44.17;;;23.42;;
34988;SDS011;21192;40.182;44.516;2024-01-15T05:55:35;57.45;;;30.35;;
34988;SDS011;21192;40.182;44.516;2024-01-15T05:58:03;40.92;;;22.40;;
34988;SDS011;21192;40.182;44.516;2024-01-15T06:00:29;72.57;;;44.65;;
34988;SDS011;21192;40.182;44.516;2024-01-15T06:02:56;50.35;;;28.15;;
34988;SDS011;21192;40.182;44.516;2024-01-15T06:05:22;38.70;;;22.70;;
34988;SDS011;21192;40.182;44.516;2024-01-15T06:07:48;42.40;;;22.02;;
34988;SDS011;21192;40.182;44.516;2024-01-15T06:10:14;36.92;;;21.77;;
34988;SDS011;21192;40.182;44.516;2024-01-15T06:12:40;44.63;;;26.20;;
34988;SDS011;21192;40.182;44.516;2024-01-15T06:15:05;38.45;;;20.20;;
34988;SDS011;21192;40.182;44.516;2024-01-15T06:17:31;30.80;;;19.77;;
34988;SDS011;21192;40.182;44.516;2024-01-15T06:19:58;38.72;;;22.88;;
34988;SDS011;21192;40.182;44.516;2024-01-15T06:22:24;23.98;;;16.25;;
34988;SDS011;21192;40.182;44.516;2024-01-15T06:24:49;31.33;;;16.85;;
34988;SDS011;21192;40.182;44.516;2024-01-15T06:27:15;27.40;;;15.27;;
34988;SDS011;21192;40.182;44.516;2024-01-15T06:29:44;31.88;;;16.55;;
34988;SDS011;21192;40.182;44.516;2024-01-15T06:32:12;27.73;;;17.33;;
34988;SDS011;21192;40.182;44.516;2024-01-15T06:34:38;37.08;;;19.42;;
34988;SDS011;21192;40.182;44.516;2024-01-15T06:37:04;26.92;;;18.20;;
34988;SDS011;21192;40.182;44.516;2024-01-15T06:39:30;30.40;;;18.38;;
34988;SDS011;21192;40.182;44.516;2024-01-15T06:41:56;30.33;;;21.63;;
34988;SDS011;21192;40.182;44.516;2024-01-15T06:44:22;31.63;;;20.50;;
34988;SDS011;21192;40.182;44.516;2024-01-15T06:46:48;30.02;;;20.08;;
34988;SDS011;21192;40.182;44.516;2024-01-15T06:49:14;34.08;;;20.30;;
34988;SDS011;21192;40.182;44.516;2024-01-15T06:51:40;38.03;;;21.45;;
34988;SDS011;21192;40.182;44.516;2024-01-15T06:54:06;31.50;;;19.92;;
34988;SDS011;21192;40.182;44.516;2024-01-15T06:56:32;58.25;;;26.17;;
34988;SDS011;21192;40.182;44.516;2024-01-15T06:58:58;30.58;;;19.98;;
34988;SDS011;21192;40.182;44.516;2024-01-15T07:01:24;30.50;;;19.52;;
34988;SDS011;21192;40.182;44.516;2024-01-15T07:03:50;34.00;;;21.65;;
34988;SDS011;21192;40.182;44.516;2024-01-15T07:06:16;31.50;;;20.88;;
34988;SDS011;21192;40.182;44.516;2024-01-15T07:08:42;31.88;;;19.35;;
34988;SDS011;21192;40.182;44.516;2024-01-15T07:11:08;30.60;;;19.30;;
34988;SDS011;21192;40.182;44.516;2024-01-15T07:13:35;31.55;;;21.52;;
34988;SDS011;21192;40.182;44.516;2024-01-15T07:16:02;40.78;;;20.55;;
34988;SDS011;21192;40.182;44.516;2024-01-15T07:18:28;36.75;;;21.08;;
34988;SDS011;21192;40.182;44.516;2024-01-15T07:20:54;29.63;;;18.58;;
34988;SDS011;21192;40.182;44.516;2024-01-15T07:23:20;34.83;;;20.73;;
34988;SDS011;21192;40.182;44.516;2024-01-15T07:25:45;33.67;;;20.55;;
34988;SDS011;21192;40.182;44.516;2024-01-15T07:28:11;33.17;;;21.00;;
34988;SDS011;21192;40.182;44.516;2024-01-15T07:30:37;34.15;;;19.92;;
34988;SDS011;21192;40.182;44.516;2024-01-15T07:33:04;34.15;;;20.63;;
34988;SDS011;21192;40.182;44.516;2024-01-15T07:35:30;48.22;;;25.75;;
34988;SDS011;21192;40.182;44.516;2024-01-15T07:37:56;53.50;;;27.80;;
34988;SDS011;21192;40.182;44.516;2024-01-15T07:40:22;38.78;;;22.60;;
34988;SDS011;21192;40.182;44.516;2024-01-15T07:42:49;37.40;;;23.30;;
34988;SDS011;21192;40.182;44.516;2024-01-15T07:45:16;35.35;;;26.30;;
34988;SDS011;21192;40.182;44.516;2024-01-15T07:47:42;38.13;;;22.48;;
34988;SDS011;21192;40.182;44.516;2024-01-15T07:50:08;44.38;;;23.48;;
34988;SDS011;21192;40.182;44.516;2024-01-15T07:52:34;42.40;;;23.70;;
34988;SDS011;21192;40.182;44.516;2024-01-15T07:55:00;46.35;;;26.80;;
34988;SDS011;21192;40.182;44.516;2024-01-15T07:57:28;38.08;;;23.52;;
34988;SDS011;21192;40.182;44.516;2024-01-15T07:59:54;40.47;;;23.63;;
34988;SDS011;21192;40.182;44.516;2024-01-15T08:02:20;45.15;;;27.83;;
34988;SDS011;21192;40.182;44.516;2024-01-15T08:04:47;46.20;;;29.88;;
34988;SDS011;21192;40.182;44.516;2024-01-15T08:07:13;42.88;;;25.35;;
34988;SDS011;21192;40.182;44.516;2024-01-15T08:09:39;48.08;;;27.42;;
34988;SDS011;21192;40.182;44.516;2024-01-15T08:12:05;82.00;;;48.63;;
34988;SDS011;21192;40.182;44.516;2024-01-15T08:14:31;58.08;;;34.20;;
34988;SDS011;21192;40.182;44.516;2024-01-15T08:16:57;45.95;;;27.02;;
34988;SDS011;21192;40.182;44.516;2024-01-15T08:19:23;40.53;;;25.13;;
34988;SDS011;21192;40.182;44.516;2024-01-15T08:21:49;49.10;;;30.05;;
34988;SDS011;21192;40.182;44.516;2024-01-15T08:24:15;43.80;;;27.67;;
34988;SDS011;21192;40.182;44.516;2024-01-15T08:26:42;51.83;;;29.80;;
34988;SDS011;21192;40.182;44.516;2024-01-15T08:29:08;45.58;;;26.60;;
34988;SDS011;21192;40.182;44.516;2024-01-15T08:31:34;58.58;;;36.85;;
34988;SDS011;21192;40.182;44.516;2024-01-15T08:34:00;48.33;;;28.20;;
34988;SDS011;21192;40.182;44.516;2024-01-15T08:36:27;37.20;;;26.42;;
34988;SDS011;21192;40.182;44.516;2024-01-15T08:38:54;46.20;;;28.65;;
34988;SDS011;21192;40.182;44.516;2024-01-15T08:41:20;45.50;;;28.98;;
34988;SDS011;21192;40.182;44.516;2024-01-15T08:43:46;55.90;;;34.90;;
34988;SDS011;21192;40.182;44.516;2024-01-15T08:46:12;46.15;;;30.65;;
34988;SDS011;21192;40.182;44.516;2024-01-15T08:48:38;46.67;;;30.25;;
34988;SDS011;21192;40.182;44.516;2024-01-15T08:51:04;50.85;;;29.73;;
34988;SDS011;21192;40.182;44.516;2024-01-15T08:53:31;51.78;;;31.10;;
34988;SDS011;21192;40.182;44.516;2024-01-15T08:55:57;46.80;;;28.77;;
34988;SDS011;21192;40.182;44.516;2024-01-15T08:58:24;57.28;;;34.25;;
34988;SDS011;21192;40.182;44.516;2024-01-15T09:00:50;44.00;;;28.00;;
34988;SDS011;21192;40.182;44.516;2024-01-15T09:03:16;50.28;;;30.85;;
34988;SDS011;21192;40.182;44.516;2024-01-15T09:05:42;68.13;;;36.28;;
34988;SDS011;21192;40.182;44.516;2024-01-15T09:08:09;48.50;;;32.17;;
34988;SDS011;21192;40.182;44.516;2024-01-15T09:10:35;54.70;;;32.08;;
34988;SDS011;21192;40.182;44.516;2024-01-15T09:13:01;52.42;;;30.40;;
34988;SDS011;21192;40.182;44.516;2024-01-15T09:15:29;57.08;;;32.15;;
34988;SDS011;21192;40.182;44.516;2024-01-15T09:17:55;58.58;;;33.38;;
34988;SDS011;21192;40.182;44.516;2024-01-15T09:20:22;52.63;;;31.90;;
34988;SDS011;21192;40.182;44.516;2024-01-15T09:22:48;54.63;;;31.33;;
34988;SDS011;21192;40.182;44.516;2024-01-15T09:25:14;51.83;;;30.95;;
34988;SDS011;21192;40.182;44.516;2024-01-15T09:27:40;59.80;;;33.10;;
34988;SDS011;21192;40.182;44.516;2024-01-15T09:30:06;55.95;;;32.85;;
34988;SDS011;21192;40.182;44.516;2024-01-15T09:32:33;50.53;;;31.55;;
34988;SDS011;21192;40.182;44.516;2024-01-15T09:34:59;58.88;;;31.77;;
34988;SDS011;21192;40.182;44.516;2024-01-15T09:37:25;53.78;;;30.98;;
34988;SDS011;21192;40.182;44.516;2024-01-15T09:39:51;47.50;;;29.55;;
34988;SDS011;21192;40.182;44.516;2024-01-15T09:42:17;53.35;;;30.70;;
34988;SDS011;21192;40.182;44.516;2024-01-15T09:44:44;57.08;;;32.15;;
34988;SDS011;21192;40.182;44.516;2024-01-15T09:47:10;53.95;;;31.60;;
34988;SDS011;21192;40.182;44.516;2024-01-15T09:49:37;53.72;;;32.88;;
34988;SDS011;21192;40.182;44.516;2024-01-15T09:52:05;49.05;;;32.05;;
34988;SDS011;21192;40.182;44.516;2024-01-15T09:54:33;49.45;;;32.00;;
34988;SDS011;21192;40.182;44.516;2024-01-15T09:57:00;47.70;;;31.15;;
34988;SDS011;21192;40.182;44.516;2024-01-15T09:59:26;53.55;;;30.48;;
34988;SDS011;21192;40.182;44.516;2024-01-15T10:01:53;49.45;;;30.33;;
34988;SDS011;21192;40.182;44.516;2024-01-15T10:04:21;56.55;;;33.72;;
34988;SDS011;21192;40.182;44.516;2024-01-15T10:06:49;49.97;;;31.58;;
34988;SDS011;21192;40.182;44.516;2024-01-15T10:09:17;52.15;;;31.23;;
34988;SDS011;21192;40.182;44.516;2024-01-15T10:11:43;61.08;;;33.33;;
34988;SDS011;21192;40.182;44.516;2024-01-15T10:14:10;48.95;;;32.28;;
34988;SDS011;21192;40.182;44.516;2024-01-15T10:16:40;57.83;;;33.03;;
34988;SDS011;21192;40.182;44.516;2024-01-15T10:19:10;59.65;;;34.00;;
34988;SDS011;21192;40.182;44.516;2024-01-15T10:21:35;54.78;;;33.10;;
34988;SDS011;21192;40.182;44.516;2024-01-15T10:24:02;63.33;;;37.13;;
34988;SDS011;21192;40.182;44.516;2024-01-15T10:26:30;60.40;;;37.70;;
34988;SDS011;21192;40.182;44.516;2024-01-15T10:28:57;50.28;;;31.35;;
34988;SDS011;21192;40.182;44.516;2024-01-15T10:31:25;51.55;;;31.73;;
34988;SDS011;21192;40.182;44.516;2024-01-15T10:33:52;56.60;;;33.83;;
34988;SDS011;21192;40.182;44.516;2024-01-15T10:36:18;54.97;;;32.03;;
34988;SDS011;21192;40.182;44.516;2024-01-15T10:38:44;52.58;;;32.30;;
34988;SDS011;21192;40.182;44.516;2024-01-15T10:41:11;58.08;;;31.48;;
34988;SDS011;21192;40.182;44.516;2024-01-15T10:43:37;54.92;;;32.95;;
34988;SDS011;21192;40.182;44.516;2024-01-15T10:46:06;51.72;;;32.33;;
34988;SDS011;21192;40.182;44.516;2024-01-15T10:48:32;56.65;;;31.90;;
34988;SDS011;21192;40.182;44.516;2024-01-15T10:51:00;56.00;;;30.48;;
34988;SDS011;21192;40.182;44.516;2024-01-15T10:53:35;53.45;;;33.25;;
34988;SDS011;21192;40.182;44.516;2024-01-15T10:56:07;55.50;;;32.72;;
34988;SDS011;21192;40.182;44.516;2024-01-15T10:58:36;46.10;;;29.33;;
34988;SDS011;21192;40.182;44.516;2024-01-15T11:01:05;45.63;;;28.00;;
34988;SDS011;21192;40.182;44.516;2024-01-15T11:03:31;44.05;;;29.02;;
34988;SDS011;21192;40.182;44.516;2024-01-15T11:05:58;45.85;;;29.27;;
34988;SDS011;21192;40.182;44.516;2024-01-15T11:08:25;52.70;;;28.85;;
34988;SDS011;21192;40.182;44.516;2024-01-15T11:10:51;50.50;;;29.95;;
34988;SDS011;21192;40.182;44.516;2024-01-15T11:15:59;59.67;;;33.08;;
34988;SDS011;21192;40.182;44.516;2024-01-15T11:19:09;58.60;;;32.70;;
34988;SDS011;21192;40.182;44.516;2024-01-15T11:21:25;43.58;;;29.30;;
34988;SDS011;21192;40.182;44.516;2024-01-15T11:23:53;50.40;;;30.55;;
34988;SDS011;21192;40.182;44.516;2024-01-15T11:29:01;45.15;;;29.83;;
34988;SDS011;21192;40.182;44.516;2024-01-15T11:34:21;47.75;;;31.23;;
34988;SDS011;21192;40.182;44.516;2024-01-15T11:37:24;48.08;;;29.95;;
34988;SDS011;21192;40.182;44.516;2024-01-15T11:39:55;55.58;;;29.92;;
34988;SDS011;21192;40.182;44.516;2024-01-15T11:42:26;50.40;;;31.02;;
34988;SDS011;21192;40.182;44.516;2024-01-15T11:44:52;53.03;;;30.50;;
34988;SDS011;21192;40.182;44.516;2024-01-15T11:47:26;49.60;;;29.83;;
34988;SDS011;21192;40.182;44.516;2024-01-15T11:50:02;44.30;;;28.13;;
34988;SDS011;21192;40.182;44.516;2024-01-15T11:52:35;44.35;;;28.73;;
34988;SDS011;21192;40.182;44.516;2024-01-15T11:55:12;45.95;;;28.40;;
34988;SDS011;21192;40.182;44.516;2024-01-15T11:57:53;41.08;;;26.40;;
34988;SDS011;21192;40.182;44.516;2024-01-15T12:00:20;48.45;;;26.33;;
34988;SDS011;21192;40.182;44.516;2024-01-15T12:02:48;45.25;;;26.60;;
34988;SDS011;21192;40.182;44.516;2024-01-15T12:05:16;43.55;;;28.05;;
34988;SDS011;21192;40.182;44.516;2024-01-15T12:07:47;48.72;;;29.58;;
34988;SDS011;21192;40.182;44.516;2024-01-15T12:10:18;45.40;;;27.20;;
34988;SDS011;21192;40.182;44.516;2024-01-15T12:15:30;43.58;;;27.17;;
34988;SDS011;21192;40.182;44.516;2024-01-15T12:17:58;42.10;;;26.33;;
34988;SDS011;21192;40.182;44.516;2024-01-15T12:20:28;40.53;;;27.80;;
34988;SDS011;21192;40.182;44.516;2024-01-15T12:22:55;45.63;;;27.65;;
34988;SDS011;21192;40.182;44.516;2024-01-15T12:25:22;39.20;;;25.88;;
34988;SDS011;21192;40.182;44.516;2024-01-15T12:27:49;41.85;;;27.02;;
34988;SDS011;21192;40.182;44.516;2024-01-15T12:30:15;47.08;;;27.83;;
34988;SDS011;21192;40.182;44.516;2024-01-15T12:32:41;42.08;;;28.65;;
34988;SDS011;21192;40.182;44.516;2024-01-15T12:35:08;44.95;;;27.10;;
34988;SDS011;21192;40.182;44.516;2024-01-15T12:37:44;50.67;;;26.25;;
34988;SDS011;21192;40.182;44.516;2024-01-15T12:40:13;44.03;;;26.60;;
34988;SDS011;21192;40.182;44.516;2024-01-15T12:42:45;42.72;;;27.50;;
34988;SDS011;21192;40.182;44.516;2024-01-15T12:45:11;46.35;;;28.45;;
34988;SDS011;21192;40.182;44.516;2024-01-15T12:47:38;45.97;;;25.85;;
34988;SDS011;21192;40.182;44.516;2024-01-15T12:50:11;44.92;;;25.90;;
34988;SDS011;21192;40.182;44.516;2024-01-15T12:52:39;41.88;;;24.73;;
34988;SDS011;21192;40.182;44.516;2024-01-15T12:55:07;41.10;;;25.77;;
34988;SDS011;21192;40.182;44.516;2024-01-15T12:57:36;42.75;;;25.80;;
34988;SDS011;21192;40.182;44.516;2024-01-15T13:00:03;46.70;;;26.60;;
34988;SDS011;21192;40.182;44.516;2024-01-15T13:02:37;47.35;;;25.40;;
34988;SDS011;21192;40.182;44.516;2024-01-15T13:05:05;39.08;;;25.02;;
34988;SDS011;21192;40.182;44.516;2024-01-15T13:07:33;44.05;;;26.48;;
34988;SDS011;21192;40.182;44.516;2024-01-15T13:09:59;41.58;;;26.52;;
34988;SDS011;21192;40.182;44.516;2024-01-15T13:12:25;47.58;;;27.23;;
34988;SDS011;21192;40.182;44.516;2024-01-15T13:14:51;47.28;;;27.67;;
34988;SDS011;21192;40.182;44.516;2024-01-15T13:17:17;50.20;;;28.17;;
34988;SDS011;21192;40.182;44.516;2024-01-15T13:19:43;45.53;;;27.50;;
34988;SDS011;21192;40.182;44.516;2024-01-15T13:22:08;43.38;;;25.90;;
34988;SDS011;21192;40.182;44.516;2024-01-15T13:24:37;45.53;;;26.38;;
34988;SDS011;21192;40.182;44.516;2024-01-15T13:27:03;57.30;;;28.40;;
34988;SDS011;21192;40.182;44.516;2024-01-15T13:29:31;47.42;;;26.40;;
34988;SDS011;21192;40.182;44.516;2024-01-15T13:31:57;39.53;;;26.02;;
34988;SDS011;21192;40.182;44.516;2024-01-15T13:34:23;44.13;;;26.52;;
34988;SDS011;21192;40.182;44.516;2024-01-15T13:36:49;48.92;;;27.88;;
34988;SDS011;21192;40.182;44.516;2024-01-15T13:39:15;44.00;;;26.70;;
34988;SDS011;21192;40.182;44.516;2024-01-15T13:41:45;47.08;;;28.15;;
34988;SDS011;21192;40.182;44.516;2024-01-15T13:44:14;43.33;;;26.75;;
34988;SDS011;21192;40.182;44.516;2024-01-15T13:46:40;43.08;;;27.13;;
34988;SDS011;21192;40.182;44.516;2024-01-15T13:49:06;40.13;;;27.23;;
34988;SDS011;21192;40.182;44.516;2024-01-15T13:51:34;44.90;;;26.95;;
34988;SDS011;21192;40.182;44.516;2024-01-15T13:54:01;42.55;;;27.40;;
34988;SDS011;21192;40.182;44.516;2024-01-15T13:56:29;44.88;;;27.73;;
34988;SDS011;21192;40.182;44.516;2024-01-15T13:58:57;48.10;;;28.63;;
34988;SDS011;21192;40.182;44.516;2024-01-15T14:01:24;42.78;;;27.00;;
34988;SDS011;21192;40.182;44.516;2024-01-15T14:03:50;47.25;;;27.48;;
34988;SDS011;21192;40.182;44.516;2024-01-15T14:06:16;46.45;;;28.00;;
34988;SDS011;21192;40.182;44.516;2024-01-15T14:08:42;50.72;;;27.88;;
34988;SDS011;21192;40.182;44.516;2024-01-15T14:11:08;46.17;;;27.70;;
34988;SDS011;21192;40.182;44.516;2024-01-15T14:13:35;47.90;;;28.00;;
34988;SDS011;21192;40.182;44.516;2024-01-15T14:16:01;42.28;;;25.98;;
34988;SDS011;21192;40.182;44.516;2024-01-15T14:18:27;38.42;;;23.75;;